sensor_id;sensor_type;location;lat;lon;timestamp;P1;durP1;ratioP1;P2;durP2;ratioP2
62844;SDS011;48929;47.910;20.390;2023-02-03T00:01:40;14.85;;;7.30;;
62844;SDS011;48929;47.910;20.390;2023-02-03T00:04:12;18.20;;;7.88;;
62844;SDS011;48929;47.910;20.390;2023-02-03T00:06:44;12.93;;;5.72;;
62844;SDS011;48929;47.910;20.390;2023-02-03T00:09:13;11.85;;;5.13;;
62844;SDS011;48929;47.910;20.390;2023-02-03T00:11:42;12.10;;;5.85;;
62844;SDS011;48929;47.910;20.390;2023-02-03T00:14:10;12.55;;;5.65;;
62844;SDS011;48929;47.910;20.390;2023-02-03T00:16:39;13.02;;;5.85;;
62844;SDS011;48929;47.910;20.390;2023-02-03T00:19:08;10.60;;;5.45;;
62844;SDS011;48929;47.910;20.390;2023-02-03T00:21:37;14.52;;;5.82;;
62844;SDS011;48929;47.910;20.390;2023-02-03T00:24:06;17.15;;;5.85;;
62844;SDS011;48929;47.910;20.390;2023-02-03T00:26:34;10.70;;;4.53;;
62844;SDS011;48929;47.910;20.390;2023-02-03T00:29:07;11.23;;;5.45;;
62844;SDS011;48929;47.910;20.390;2023-02-03T00:31:36;12.20;;;6.22;;
62844;SDS011;48929;47.910;20.390;2023-02-03T00:34:04;10.23;;;4.85;;
62844;SDS011;48929;47.910;20.390;2023-02-03T00:36:35;14.20;;;5.82;;
62844;SDS011;48929;47.910;20.390;2023-02-03T00:39:03;10.63;;;4.82;;
62844;SDS011;48929;47.910;20.390;2023-02-03T00:41:32;12.70;;;4.75;;
62844;SDS011;48929;47.910;20.390;2023-02-03T00:44:00;8.32;;;4.47;;
62844;SDS011;48929;47.910;20.390;2023-02-03T00:46:28;8.40;;;4.43;;
62844;SDS011;48929;47.910;20.390;2023-02-03T00:48:57;8.63;;;4.30;;
62844;SDS011;48929;47.910;20.390;2023-02-03T00:51:25;11.15;;;5.30;;
62844;SDS011;48929;47.910;20.390;2023-02-03T00:53:55;13.75;;;5.13;;
62844;SDS011;48929;47.910;20.390;2023-02-03T00:56:24;10.15;;;4.50;;
62844;SDS011;48929;47.910;20.390;2023-02-03T00:58:52;11.70;;;5.10;;
62844;SDS011;48929;47.910;20.390;2023-02-03T01:01:21;11.73;;;5.10;;
62844;SDS011;48929;47.910;20.390;2023-02-03T01:03:49;10.63;;;5.10;;
62844;SDS011;48929;47.910;20.390;2023-02-03T01:06:19;9.70;;;4.80;;
62844;SDS011;48929;47.910;20.390;2023-02-03T01:08:47;8.85;;;4.82;;
62844;SDS011;48929;47.910;20.390;2023-02-03T01:11:18;10.93;;;5.40;;
62844;SDS011;48929;47.910;20.390;2023-02-03T01:13:47;9.27;;;5.00;;
62844;SDS011;48929;47.910;20.390;2023-02-03T01:16:17;9.80;;;4.30;;
62844;SDS011;48929;47.910;20.390;2023-02-03T01:18:46;7.03;;;4.03;;
62844;SDS011;48929;47.910;20.390;2023-02-03T01:21:15;10.93;;;4.15;;
62844;SDS011;48929;47.910;20.390;2023-02-03T01:23:45;10.88;;;4.28;;
62844;SDS011;48929;47.910;20.390;2023-02-03T01:26:15;7.30;;;4.28;;
62844;SDS011;48929;47.910;20.390;2023-02-03T01:28:50;8.32;;;4.30;;
62844;SDS011;48929;47.910;20.390;2023-02-03T01:31:19;6.10;;;3.80;;
62844;SDS011;48929;47.910;20.390;2023-02-03T01:33:49;7.93;;;3.80;;
62844;SDS011;48929;47.910;20.390;2023-02-03T01:36:20;7.07;;;3.80;;
62844;SDS011;48929;47.910;20.390;2023-02-03T01:38:49;7.50;;;3.65;;
62844;SDS011;48929;47.910;20.390;2023-02-03T01:41:18;8.82;;;3.47;;
62844;SDS011;48929;47.910;20.390;2023-02-03T01:43:47;6.15;;;2.97;;
62844;SDS011;48929;47.910;20.390;2023-02-03T01:46:20;6.00;;;3.30;;
62844;SDS011;48929;47.910;20.390;2023-02-03T01:48:49;7.03;;;3.45;;
62844;SDS011;48929;47.910;20.390;2023-02-03T01:51:19;4.88;;;2.92;;
62844;SDS011;48929;47.910;20.390;2023-02-03T01:53:48;15.57;;;4.10;;
62844;SDS011;48929;47.910;20.390;2023-02-03T01:56:18;6.38;;;3.05;;
62844;SDS011;48929;47.910;20.390;2023-02-03T01:58:47;6.68;;;3.25;;
62844;SDS011;48929;47.910;20.390;2023-02-03T02:01:16;6.75;;;3.97;;
62844;SDS011;48929;47.910;20.390;2023-02-03T02:03:47;8.25;;;3.50;;
62844;SDS011;48929;47.910;20.390;2023-02-03T02:06:17;10.40;;;3.60;;
62844;SDS011;48929;47.910;20.390;2023-02-03T02:08:46;8.05;;;3.90;;
62844;SDS011;48929;47.910;20.390;2023-02-03T02:11:15;5.90;;;3.42;;
62844;SDS011;48929;47.910;20.390;2023-02-03T02:13:44;8.77;;;4.45;;
62844;SDS011;48929;47.910;20.390;2023-02-03T02:16:14;6.32;;;3.60;;
62844;SDS011;48929;47.910;20.390;2023-02-03T02:18:59;7.25;;;3.47;;
62844;SDS011;48929;47.910;20.390;2023-02-03T02:21:51;5.97;;;3.28;;
62844;SDS011;48929;47.910;20.390;2023-02-03T02:27:20;8.15;;;3.45;;
62844;SDS011;48929;47.910;20.390;2023-02-03T02:30:05;6.10;;;3.42;;
62844;SDS011;48929;47.910;20.390;2023-02-03T02:35:36;7.10;;;3.50;;
62844;SDS011;48929;47.910;20.390;2023-02-03T02:38:10;8.57;;;3.70;;
62844;SDS011;48929;47.910;20.390;2023-02-03T02:40:42;9.25;;;4.25;;
62844;SDS011;48929;47.910;20.390;2023-02-03T02:43:12;8.50;;;4.10;;
62844;SDS011;48929;47.910;20.390;2023-02-03T02:45:44;9.35;;;3.88;;
62844;SDS011;48929;47.910;20.390;2023-02-03T02:48:15;9.95;;;3.78;;
62844;SDS011;48929;47.910;20.390;2023-02-03T02:50:47;9.23;;;3.83;;
62844;SDS011;48929;47.910;20.390;2023-02-03T02:53:16;7.85;;;3.58;;
62844;SDS011;48929;47.910;20.390;2023-02-03T02:55:46;7.57;;;4.03;;
62844;SDS011;48929;47.910;20.390;2023-02-03T02:58:15;8.15;;;4.25;;
62844;SDS011;48929;47.910;20.390;2023-02-03T03:00:44;11.00;;;5.15;;
62844;SDS011;48929;47.910;20.390;2023-02-03T03:03:13;9.63;;;5.30;;
62844;SDS011;48929;47.910;20.390;2023-02-03T03:05:43;12.85;;;5.85;;
62844;SDS011;48929;47.910;20.390;2023-02-03T03:08:15;9.27;;;4.50;;
62844;SDS011;48929;47.910;20.390;2023-02-03T03:10:44;12.23;;;5.80;;
62844;SDS011;48929;47.910;20.390;2023-02-03T03:13:14;8.80;;;4.50;;
62844;SDS011;48929;47.910;20.390;2023-02-03T03:15:45;10.35;;;4.55;;
62844;SDS011;48929;47.910;20.390;2023-02-03T03:18:16;10.68;;;4.78;;
62844;SDS011;48929;47.910;20.390;2023-02-03T03:20:45;11.98;;;4.63;;
62844;SDS011;48929;47.910;20.390;2023-02-03T03:23:17;8.13;;;3.92;;
62844;SDS011;48929;47.910;20.390;2023-02-03T03:25:48;9.43;;;4.57;;
62844;SDS011;48929;47.910;20.390;2023-02-03T03:28:20;10.98;;;5.47;;
62844;SDS011;48929;47.910;20.390;2023-02-03T03:30:52;7.00;;;3.90;;
62844;SDS011;48929;47.910;20.390;2023-02-03T03:33:21;6.30;;;3.78;;
62844;SDS011;48929;47.910;20.390;2023-02-03T03:35:52;14.35;;;4.43;;
62844;SDS011;48929;47.910;20.390;2023-02-03T03:38:25;7.53;;;3.63;;
62844;SDS011;48929;47.910;20.390;2023-02-03T03:41:00;4.80;;;2.93;;
62844;SDS011;48929;47.910;20.390;2023-02-03T03:43:30;5.43;;;3.47;;
62844;SDS011;48929;47.910;20.390;2023-02-03T03:46:01;7.93;;;4.28;;
62844;SDS011;48929;47.910;20.390;2023-02-03T03:48:32;8.30;;;4.20;;
62844;SDS011;48929;47.910;20.390;2023-02-03T03:51:04;5.95;;;3.60;;
62844;SDS011;48929;47.910;20.390;2023-02-03T03:53:37;7.50;;;3.72;;
62844;SDS011;48929;47.910;20.390;2023-02-03T03:56:07;8.80;;;3.60;;
62844;SDS011;48929;47.910;20.390;2023-02-03T03:58:40;7.32;;;3.80;;
62844;SDS011;48929;47.910;20.390;2023-02-03T04:01:11;6.43;;;3.35;;
62844;SDS011;48929;47.910;20.390;2023-02-03T04:03:43;7.28;;;3.65;;
62844;SDS011;48929;47.910;20.390;2023-02-03T04:06:12;7.70;;;3.45;;
62844;SDS011;48929;47.910;20.390;2023-02-03T04:08:42;6.72;;;3.42;;
62844;SDS011;48929;47.910;20.390;2023-02-03T04:11:11;7.13;;;3.80;;
62844;SDS011;48929;47.910;20.390;2023-02-03T04:13:59;6.07;;;3.55;;
62844;SDS011;48929;47.910;20.390;2023-02-03T04:16:27;6.65;;;3.78;;
62844;SDS011;48929;47.910;20.390;2023-02-03T04:18:56;13.75;;;3.60;;
62844;SDS011;48929;47.910;20.390;2023-02-03T04:21:25;9.10;;;4.32;;
62844;SDS011;48929;47.910;20.390;2023-02-03T04:23:55;9.93;;;4.28;;
62844;SDS011;48929;47.910;20.390;2023-02-03T04:26:23;8.65;;;3.83;;
62844;SDS011;48929;47.910;20.390;2023-02-03T04:28:52;7.90;;;3.80;;
62844;SDS011;48929;47.910;20.390;2023-02-03T04:31:20;6.30;;;3.47;;
62844;SDS011;48929;47.910;20.390;2023-02-03T04:33:49;6.72;;;3.45;;
62844;SDS011;48929;47.910;20.390;2023-02-03T04:36:17;9.77;;;3.33;;
62844;SDS011;48929;47.910;20.390;2023-02-03T04:38:47;7.03;;;3.33;;
62844;SDS011;48929;47.910;20.390;2023-02-03T04:41:17;8.15;;;3.00;;
62844;SDS011;48929;47.910;20.390;2023-02-03T04:43:45;8.00;;;3.55;;
62844;SDS011;48929;47.910;20.390;2023-02-03T04:46:13;11.15;;;4.43;;
62844;SDS011;48929;47.910;20.390;2023-02-03T04:48:42;9.80;;;4.30;;
62844;SDS011;48929;47.910;20.390;2023-02-03T04:51:10;6.72;;;3.38;;
62844;SDS011;48929;47.910;20.390;2023-02-03T04:53:38;7.35;;;3.33;;
62844;SDS011;48929;47.910;20.390;2023-02-03T04:56:07;7.93;;;3.70;;
62844;SDS011;48929;47.910;20.390;2023-02-03T04:58:38;7.60;;;3.83;;
62844;SDS011;48929;47.910;20.390;2023-02-03T05:01:07;6.35;;;2.90;;
62844;SDS011;48929;47.910;20.390;2023-02-03T05:03:36;6.88;;;3.03;;
62844;SDS011;48929;47.910;20.390;2023-02-03T05:06:04;9.02;;;3.30;;
62844;SDS011;48929;47.910;20.390;2023-02-03T05:08:33;6.45;;;3.33;;
62844;SDS011;48929;47.910;20.390;2023-02-03T05:11:02;6.95;;;3.28;;
62844;SDS011;48929;47.910;20.390;2023-02-03T05:13:32;6.93;;;3.22;;
62844;SDS011;48929;47.910;20.390;2023-02-03T05:16:02;4.68;;;2.95;;
62844;SDS011;48929;47.910;20.390;2023-02-03T05:18:30;6.60;;;3.17;;
62844;SDS011;48929;47.910;20.390;2023-02-03T05:20:59;5.65;;;2.78;;
62844;SDS011;48929;47.910;20.390;2023-02-03T05:23:28;8.45;;;3.53;;
62844;SDS011;48929;47.910;20.390;2023-02-03T05:25:57;8.00;;;3.72;;
62844;SDS011;48929;47.910;20.390;2023-02-03T05:28:25;5.13;;;3.08;;
62844;SDS011;48929;47.910;20.390;2023-02-03T05:30:56;7.22;;;3.65;;
62844;SDS011;48929;47.910;20.390;2023-02-03T05:33:26;7.32;;;3.60;;
62844;SDS011;48929;47.910;20.390;2023-02-03T05:35:55;5.05;;;2.88;;
62844;SDS011;48929;47.910;20.390;2023-02-03T05:38:24;9.05;;;4.35;;
62844;SDS011;48929;47.910;20.390;2023-02-03T05:40:52;4.78;;;2.75;;
62844;SDS011;48929;47.910;20.390;2023-02-03T05:43:38;4.55;;;2.17;;
62844;SDS011;48929;47.910;20.390;2023-02-03T05:46:06;5.03;;;2.80;;
62844;SDS011;48929;47.910;20.390;2023-02-03T05:48:37;3.80;;;2.70;;
62844;SDS011;48929;47.910;20.390;2023-02-03T05:51:05;5.28;;;2.53;;
62844;SDS011;48929;47.910;20.390;2023-02-03T05:53:34;7.53;;;3.08;;
62844;SDS011;48929;47.910;20.390;2023-02-03T05:56:02;4.70;;;2.45;;
62844;SDS011;48929;47.910;20.390;2023-02-03T05:58:30;3.58;;;2.25;;
62844;SDS011;48929;47.910;20.390;2023-02-03T06:00:59;8.82;;;3.53;;
62844;SDS011;48929;47.910;20.390;2023-02-03T06:03:28;7.13;;;3.75;;
62844;SDS011;48929;47.910;20.390;2023-02-03T06:05:58;6.53;;;3.38;;
62844;SDS011;48929;47.910;20.390;2023-02-03T06:08:27;7.18;;;3.60;;
62844;SDS011;48929;47.910;20.390;2023-02-03T06:10:58;6.00;;;2.97;;
62844;SDS011;48929;47.910;20.390;2023-02-03T06:13:26;5.45;;;2.97;;
62844;SDS011;48929;47.910;20.390;2023-02-03T06:15:55;5.07;;;3.35;;
62844;SDS011;48929;47.910;20.390;2023-02-03T06:18:24;5.82;;;3.05;;
62844;SDS011;48929;47.910;20.390;2023-02-03T06:20:52;7.30;;;2.95;;
62844;SDS011;48929;47.910;20.390;2023-02-03T06:23:22;5.82;;;2.97;;
62844;SDS011;48929;47.910;20.390;2023-02-03T06:25:51;5.43;;;3.08;;
62844;SDS011;48929;47.910;20.390;2023-02-03T06:28:19;5.72;;;2.70;;
62844;SDS011;48929;47.910;20.390;2023-02-03T06:30:48;5.25;;;2.90;;
62844;SDS011;48929;47.910;20.390;2023-02-03T06:33:17;7.07;;;3.22;;
62844;SDS011;48929;47.910;20.390;2023-02-03T06:35:46;7.63;;;4.07;;
62844;SDS011;48929;47.910;20.390;2023-02-03T06:38:15;8.15;;;3.72;;
62844;SDS011;48929;47.910;20.390;2023-02-03T06:40:46;5.07;;;3.10;;
62844;SDS011;48929;47.910;20.390;2023-02-03T06:43:15;7.80;;;3.33;;
62844;SDS011;48929;47.910;20.390;2023-02-03T06:45:44;5.30;;;2.55;;
62844;SDS011;48929;47.910;20.390;2023-02-03T06:48:13;6.45;;;2.72;;
62844;SDS011;48929;47.910;20.390;2023-02-03T06:50:41;5.57;;;2.88;;
62844;SDS011;48929;47.910;20.390;2023-02-03T06:53:13;4.60;;;2.90;;
62844;SDS011;48929;47.910;20.390;2023-02-03T06:55:42;4.43;;;2.78;;
62844;SDS011;48929;47.910;20.390;2023-02-03T06:58:13;9.02;;;3.10;;
62844;SDS011;48929;47.910;20.390;2023-02-03T07:00:42;6.80;;;3.40;;
62844;SDS011;48929;47.910;20.390;2023-02-03T07:03:11;4.78;;;2.50;;
62844;SDS011;48929;47.910;20.390;2023-02-03T07:05:39;5.53;;;2.70;;
62844;SDS011;48929;47.910;20.390;2023-02-03T07:08:07;5.15;;;2.45;;
62844;SDS011;48929;47.910;20.390;2023-02-03T07:10:36;5.00;;;2.65;;
62844;SDS011;48929;47.910;20.390;2023-02-03T07:13:06;4.82;;;2.30;;
62844;SDS011;48929;47.910;20.390;2023-02-03T07:15:36;4.45;;;2.35;;
62844;SDS011;48929;47.910;20.390;2023-02-03T07:18:05;4.75;;;2.72;;
62844;SDS011;48929;47.910;20.390;2023-02-03T07:20:33;4.35;;;2.45;;
62844;SDS011;48929;47.910;20.390;2023-02-03T07:23:01;5.75;;;2.90;;
62844;SDS011;48929;47.910;20.390;2023-02-03T07:25:30;9.07;;;2.80;;
62844;SDS011;48929;47.910;20.390;2023-02-03T07:27:59;4.07;;;2.60;;
62844;SDS011;48929;47.910;20.390;2023-02-03T07:30:27;5.38;;;2.80;;
62844;SDS011;48929;47.910;20.390;2023-02-03T07:32:58;7.65;;;3.88;;
62844;SDS011;48929;47.910;20.390;2023-02-03T07:35:27;8.27;;;4.70;;
62844;SDS011;48929;47.910;20.390;2023-02-03T07:37:55;9.00;;;4.10;;
62844;SDS011;48929;47.910;20.390;2023-02-03T07:40:24;7.93;;;4.13;;
62844;SDS011;48929;47.910;20.390;2023-02-03T07:42:53;9.77;;;4.55;;
62844;SDS011;48929;47.910;20.390;2023-02-03T07:45:21;7.97;;;4.30;;
62844;SDS011;48929;47.910;20.390;2023-02-03T07:47:50;9.10;;;4.22;;
62844;SDS011;48929;47.910;20.390;2023-02-03T07:50:21;11.63;;;5.07;;
62844;SDS011;48929;47.910;20.390;2023-02-03T07:52:52;6.72;;;3.92;;
62844;SDS011;48929;47.910;20.390;2023-02-03T07:55:24;7.75;;;3.65;;
62844;SDS011;48929;47.910;20.390;2023-02-03T07:57:53;15.43;;;6.05;;
62844;SDS011;48929;47.910;20.390;2023-02-03T08:00:21;16.13;;;6.43;;
62844;SDS011;48929;47.910;20.390;2023-02-03T08:02:50;10.90;;;4.70;;
62844;SDS011;48929;47.910;20.390;2023-02-03T08:05:21;10.30;;;4.18;;
62844;SDS011;48929;47.910;20.390;2023-02-03T08:07:50;6.60;;;3.60;;
62844;SDS011;48929;47.910;20.390;2023-02-03T08:10:18;7.95;;;3.40;;
62844;SDS011;48929;47.910;20.390;2023-02-03T08:12:47;9.68;;;3.92;;
62844;SDS011;48929;47.910;20.390;2023-02-03T08:15:16;5.95;;;3.50;;
62844;SDS011;48929;47.910;20.390;2023-02-03T08:17:44;8.10;;;3.40;;
62844;SDS011;48929;47.910;20.390;2023-02-03T08:20:12;7.18;;;3.60;;
62844;SDS011;48929;47.910;20.390;2023-02-03T08:22:44;3.97;;;2.72;;
62844;SDS011;48929;47.910;20.390;2023-02-03T08:25:13;8.27;;;3.97;;
62844;SDS011;48929;47.910;20.390;2023-02-03T08:27:41;10.43;;;4.63;;
62844;SDS011;48929;47.910;20.390;2023-02-03T08:30:11;5.65;;;3.00;;
62844;SDS011;48929;47.910;20.390;2023-02-03T08:32:40;7.80;;;3.53;;
62844;SDS011;48929;47.910;20.390;2023-02-03T08:35:23;6.85;;;3.65;;
62844;SDS011;48929;47.910;20.390;2023-02-03T08:37:53;8.73;;;4.65;;
62844;SDS011;48929;47.910;20.390;2023-02-03T08:40:22;7.05;;;4.40;;
62844;SDS011;48929;47.910;20.390;2023-02-03T08:42:59;10.18;;;4.40;;
62844;SDS011;48929;47.910;20.390;2023-02-03T08:45:27;6.32;;;3.88;;
62844;SDS011;48929;47.910;20.390;2023-02-03T08:47:56;7.38;;;4.05;;
62844;SDS011;48929;47.910;20.390;2023-02-03T08:50:25;8.43;;;4.88;;
62844;SDS011;48929;47.910;20.390;2023-02-03T08:52:55;7.45;;;4.03;;
62844;SDS011;48929;47.910;20.390;2023-02-03T08:55:24;6.80;;;3.13;;
62844;SDS011;48929;47.910;20.390;2023-02-03T08:57:53;5.05;;;3.05;;
62844;SDS011;48929;47.910;20.390;2023-02-03T09:00:22;5.18;;;2.95;;
62844;SDS011;48929;47.910;20.390;2023-02-03T09:02:51;5.85;;;3.17;;
62844;SDS011;48929;47.910;20.390;2023-02-03T09:05:20;6.20;;;3.85;;
62844;SDS011;48929;47.910;20.390;2023-02-03T09:07:48;5.53;;;3.45;;
62844;SDS011;48929;47.910;20.390;2023-02-03T09:10:19;5.15;;;3.35;;
62844;SDS011;48929;47.910;20.390;2023-02-03T09:12:48;7.40;;;4.00;;
62844;SDS011;48929;47.910;20.390;2023-02-03T09:15:16;8.13;;;3.67;;
62844;SDS011;48929;47.910;20.390;2023-02-03T09:17:45;4.60;;;3.20;;
62844;SDS011;48929;47.910;20.390;2023-02-03T09:20:13;5.32;;;3.03;;
62844;SDS011;48929;47.910;20.390;2023-02-03T09:22:42;6.22;;;3.28;;
62844;SDS011;48929;47.910;20.390;2023-02-03T09:25:11;6.25;;;3.30;;
62844;SDS011;48929;47.910;20.390;2023-02-03T09:27:43;4.90;;;3.20;;
62844;SDS011;48929;47.910;20.390;2023-02-03T09:30:12;4.32;;;2.80;;
62844;SDS011;48929;47.910;20.390;2023-02-03T09:32:41;5.53;;;3.10;;
62844;SDS011;48929;47.910;20.390;2023-02-03T09:35:10;5.38;;;2.90;;
62844;SDS011;48929;47.910;20.390;2023-02-03T09:37:39;5.43;;;2.78;;
62844;SDS011;48929;47.910;20.390;2023-02-03T09:40:08;5.50;;;2.78;;
62844;SDS011;48929;47.910;20.390;2023-02-03T09:45:23;6.45;;;3.65;;
62844;SDS011;48929;47.910;20.390;2023-02-03T09:47:52;8.20;;;3.47;;
62844;SDS011;48929;47.910;20.390;2023-02-03T09:50:21;8.52;;;4.38;;
62844;SDS011;48929;47.910;20.390;2023-02-03T09:52:51;7.13;;;4.10;;
62844;SDS011;48929;47.910;20.390;2023-02-03T09:55:23;5.93;;;3.40;;
62844;SDS011;48929;47.910;20.390;2023-02-03T09:57:53;6.47;;;3.42;;
62844;SDS011;48929;47.910;20.390;2023-02-03T10:00:25;5.88;;;3.42;;
62844;SDS011;48929;47.910;20.390;2023-02-03T10:02:55;6.45;;;3.88;;
62844;SDS011;48929;47.910;20.390;2023-02-03T10:05:30;8.00;;;4.20;;
62844;SDS011;48929;47.910;20.390;2023-02-03T10:08:04;8.48;;;5.07;;
62844;SDS011;48929;47.910;20.390;2023-02-03T10:10:38;7.28;;;4.00;;
62844;SDS011;48929;47.910;20.390;2023-02-03T10:16:01;7.97;;;3.90;;
62844;SDS011;48929;47.910;20.390;2023-02-03T10:18:32;6.72;;;4.07;;
62844;SDS011;48929;47.910;20.390;2023-02-03T10:21:03;9.05;;;4.45;;
62844;SDS011;48929;47.910;20.390;2023-02-03T10:23:32;11.77;;;5.20;;
62844;SDS011;48929;47.910;20.390;2023-02-03T10:26:02;9.93;;;4.88;;
62844;SDS011;48929;47.910;20.390;2023-02-03T10:28:34;9.50;;;4.35;;
62844;SDS011;48929;47.910;20.390;2023-02-03T10:31:12;8.68;;;4.43;;
62844;SDS011;48929;47.910;20.390;2023-02-03T10:33:42;9.25;;;4.38;;
62844;SDS011;48929;47.910;20.390;2023-02-03T10:36:14;9.23;;;4.75;;
62844;SDS011;48929;47.910;20.390;2023-02-03T10:38:47;7.75;;;4.22;;
62844;SDS011;48929;47.910;20.390;2023-02-03T10:41:18;10.55;;;4.90;;
62844;SDS011;48929;47.910;20.390;2023-02-03T10:43:48;11.48;;;4.75;;
62844;SDS011;48929;47.910;20.390;2023-02-03T10:46:20;9.48;;;4.80;;
62844;SDS011;48929;47.910;20.390;2023-02-03T10:48:53;9.32;;;4.95;;
62844;SDS011;48929;47.910;20.390;2023-02-03T10:51:22;13.07;;;6.90;;
62844;SDS011;48929;47.910;20.390;2023-02-03T10:53:51;11.93;;;6.78;;
62844;SDS011;48929;47.910;20.390;2023-02-03T10:56:21;13.57;;;6.30;;
62844;SDS011;48929;47.910;20.390;2023-02-03T10:58:51;8.68;;;4.35;;
62844;SDS011;48929;47.910;20.390;2023-02-03T11:01:24;9.25;;;5.00;;
62844;SDS011;48929;47.910;20.390;2023-02-03T11:03:57;10.40;;;5.80;;
62844;SDS011;48929;47.910;20.390;2023-02-03T11:06:26;10.40;;;5.72;;
62844;SDS011;48929;47.910;20.390;2023-02-03T11:08:54;11.05;;;5.20;;
62844;SDS011;48929;47.910;20.390;2023-02-03T11:11:24;11.38;;;4.60;;
62844;SDS011;48929;47.910;20.390;2023-02-03T11:14:09;7.90;;;5.07;;
62844;SDS011;48929;47.910;20.390;2023-02-03T11:16:39;6.90;;;4.05;;
62844;SDS011;48929;47.910;20.390;2023-02-03T11:19:12;10.27;;;4.80;;
62844;SDS011;48929;47.910;20.390;2023-02-03T11:21:44;8.10;;;4.75;;
62844;SDS011;48929;47.910;20.390;2023-02-03T11:24:17;8.13;;;5.32;;
62844;SDS011;48929;47.910;20.390;2023-02-03T11:26:47;8.52;;;5.40;;
62844;SDS011;48929;47.910;20.390;2023-02-03T11:29:18;7.38;;;4.05;;
62844;SDS011;48929;47.910;20.390;2023-02-03T11:31:52;9.85;;;5.28;;
62844;SDS011;48929;47.910;20.390;2023-02-03T11:34:23;11.98;;;6.28;;
62844;SDS011;48929;47.910;20.390;2023-02-03T11:36:52;19.85;;;9.20;;
62844;SDS011;48929;47.910;20.390;2023-02-03T11:39:25;12.60;;;5.93;;
62844;SDS011;48929;47.910;20.390;2023-02-03T11:41:54;11.05;;;5.85;;
62844;SDS011;48929;47.910;20.390;2023-02-03T11:44:23;16.17;;;6.75;;
62844;SDS011;48929;47.910;20.390;2023-02-03T11:46:57;14.23;;;7.47;;
62844;SDS011;48929;47.910;20.390;2023-02-03T11:55:13;12.82;;;6.90;;
62844;SDS011;48929;47.910;20.390;2023-02-03T11:57:49;7.97;;;4.80;;
62844;SDS011;48929;47.910;20.390;2023-02-03T12:00:28;11.90;;;5.82;;
62844;SDS011;48929;47.910;20.390;2023-02-03T12:05:56;20.33;;;8.40;;
62844;SDS011;48929;47.910;20.390;2023-02-03T12:08:29;22.67;;;8.35;;
62844;SDS011;48929;47.910;20.390;2023-02-03T12:11:02;10.48;;;4.93;;
62844;SDS011;48929;47.910;20.390;2023-02-03T12:13:39;15.73;;;6.78;;
62844;SDS011;48929;47.910;20.390;2023-02-03T12:16:13;14.02;;;6.72;;
62844;SDS011;48929;47.910;20.390;2023-02-03T12:18:46;9.02;;;4.53;;
62844;SDS011;48929;47.910;20.390;2023-02-03T12:21:26;8.35;;;4.70;;
62844;SDS011;48929;47.910;20.390;2023-02-03T12:23:59;7.05;;;3.90;;
62844;SDS011;48929;47.910;20.390;2023-02-03T12:26:31;10.88;;;4.80;;
62844;SDS011;48929;47.910;20.390;2023-02-03T12:29:01;11.88;;;5.78;;
62844;SDS011;48929;47.910;20.390;2023-02-03T12:31:33;12.45;;;6.93;;
62844;SDS011;48929;47.910;20.390;2023-02-03T12:34:05;6.18;;;3.58;;
62844;SDS011;48929;47.910;20.390;2023-02-03T12:36:39;7.03;;;3.72;;
62844;SDS011;48929;47.910;20.390;2023-02-03T12:39:10;11.05;;;4.90;;
62844;SDS011;48929;47.910;20.390;2023-02-03T12:41:41;8.75;;;4.63;;
62844;SDS011;48929;47.910;20.390;2023-02-03T12:44:14;10.07;;;4.60;;
62844;SDS011;48929;47.910;20.390;2023-02-03T12:46:45;9.98;;;6.15;;
62844;SDS011;48929;47.910;20.390;2023-02-03T12:49:20;9.25;;;4.65;;
62844;SDS011;48929;47.910;20.390;2023-02-03T12:51:54;6.55;;;3.92;;
62844;SDS011;48929;47.910;20.390;2023-02-03T12:54:29;10.88;;;4.70;;
62844;SDS011;48929;47.910;20.390;2023-02-03T12:56:59;8.77;;;5.22;;
62844;SDS011;48929;47.910;20.390;2023-02-03T12:59:33;10.98;;;6.45;;
62844;SDS011;48929;47.910;20.390;2023-02-03T13:02:08;15.18;;;7.05;;
62844;SDS011;48929;47.910;20.390;2023-02-03T13:04:42;12.77;;;6.30;;
62844;SDS011;48929;47.910;20.390;2023-02-03T13:07:14;10.18;;;5.32;;
62844;SDS011;48929;47.910;20.390;2023-02-03T13:09:46;9.45;;;5.45;;
62844;SDS011;48929;47.910;20.390;2023-02-03T13:12:19;10.25;;;6.00;;
62844;SDS011;48929;47.910;20.390;2023-02-03T13:14:51;8.70;;;4.70;;
62844;SDS011;48929;47.910;20.390;2023-02-03T13:17:23;8.57;;;4.75;;
62844;SDS011;48929;47.910;20.390;2023-02-03T13:19:54;9.23;;;4.97;;
62844;SDS011;48929;47.910;20.390;2023-02-03T13:22:26;8.00;;;4.88;;
62844;SDS011;48929;47.910;20.390;2023-02-03T13:24:57;8.40;;;4.78;;
62844;SDS011;48929;47.910;20.390;2023-02-03T13:27:39;12.25;;;5.72;;
62844;SDS011;48929;47.910;20.390;2023-02-03T13:30:28;12.07;;;4.85;;
62844;SDS011;48929;47.910;20.390;2023-02-03T13:33:04;8.35;;;4.80;;
62844;SDS011;48929;47.910;20.390;2023-02-03T13:35:43;8.52;;;5.25;;
62844;SDS011;48929;47.910;20.390;2023-02-03T13:38:34;11.35;;;5.95;;
62844;SDS011;48929;47.910;20.390;2023-02-03T13:41:05;12.68;;;6.82;;
62844;SDS011;48929;47.910;20.390;2023-02-03T13:43:37;11.48;;;6.57;;
62844;SDS011;48929;47.910;20.390;2023-02-03T13:46:19;10.43;;;6.03;;
62844;SDS011;48929;47.910;20.390;2023-02-03T13:48:49;12.00;;;6.13;;
62844;SDS011;48929;47.910;20.390;2023-02-03T13:51:19;11.15;;;7.15;;
62844;SDS011;48929;47.910;20.390;2023-02-03T13:53:50;14.52;;;6.85;;
62844;SDS011;48929;47.910;20.390;2023-02-03T13:56:20;11.32;;;6.57;;
62844;SDS011;48929;47.910;20.390;2023-02-03T13:58:58;11.98;;;7.25;;
62844;SDS011;48929;47.910;20.390;2023-02-03T14:01:29;11.60;;;6.95;;
62844;SDS011;48929;47.910;20.390;2023-02-03T14:03:59;9.38;;;6.22;;
62844;SDS011;48929;47.910;20.390;2023-02-03T14:12:02;10.18;;;5.55;;
62844;SDS011;48929;47.910;20.390;2023-02-03T14:14:40;10.05;;;5.35;;
62844;SDS011;48929;47.910;20.390;2023-02-03T14:19:56;11.00;;;5.85;;
62844;SDS011;48929;47.910;20.390;2023-02-03T14:22:25;13.88;;;7.07;;
62844;SDS011;48929;47.910;20.390;2023-02-03T14:24:54;12.88;;;7.00;;
62844;SDS011;48929;47.910;20.390;2023-02-03T14:27:26;13.55;;;6.63;;
62844;SDS011;48929;47.910;20.390;2023-02-03T14:30:02;12.85;;;6.68;;
62844;SDS011;48929;47.910;20.390;2023-02-03T14:35:14;10.65;;;6.32;;
62844;SDS011;48929;47.910;20.390;2023-02-03T14:37:49;12.23;;;6.07;;
62844;SDS011;48929;47.910;20.390;2023-02-03T14:40:22;11.80;;;6.35;;
62844;SDS011;48929;47.910;20.390;2023-02-03T14:45:47;12.15;;;6.85;;
62844;SDS011;48929;47.910;20.390;2023-02-03T14:48:27;10.10;;;5.95;;
62844;SDS011;48929;47.910;20.390;2023-02-03T14:51:01;9.38;;;5.43;;
62844;SDS011;48929;47.910;20.390;2023-02-03T14:53:36;11.65;;;6.25;;
62844;SDS011;48929;47.910;20.390;2023-02-03T14:56:16;10.75;;;6.38;;
62844;SDS011;48929;47.910;20.390;2023-02-03T14:58:47;13.25;;;6.97;;
62844;SDS011;48929;47.910;20.390;2023-02-03T15:01:25;12.57;;;6.60;;
62844;SDS011;48929;47.910;20.390;2023-02-03T15:09:11;16.55;;;8.00;;
62844;SDS011;48929;47.910;20.390;2023-02-03T15:11:45;14.30;;;7.63;;
62844;SDS011;48929;47.910;20.390;2023-02-03T15:14:16;15.65;;;7.05;;
62844;SDS011;48929;47.910;20.390;2023-02-03T15:16:49;13.88;;;6.97;;
62844;SDS011;48929;47.910;20.390;2023-02-03T15:19:19;13.52;;;7.80;;
62844;SDS011;48929;47.910;20.390;2023-02-03T15:21:50;10.05;;;5.32;;
62844;SDS011;48929;47.910;20.390;2023-02-03T15:24:18;12.70;;;6.45;;
62844;SDS011;48929;47.910;20.390;2023-02-03T15:26:49;11.98;;;6.60;;
62844;SDS011;48929;47.910;20.390;2023-02-03T15:29:23;17.02;;;9.63;;
62844;SDS011;48929;47.910;20.390;2023-02-03T15:31:56;26.48;;;14.70;;